Merricourt, North Dakota
Current Conditions -  °F | °C
As of 3:56 PM on Monday 20 Oct 2014 (Local Time) from KJMS Reporting Station
Clear Clear  
Wind Chill: 21°   Ceiling: Unl
Heat Index: 21°   Visibility: 10mi
Dew Point:   Wind: 6mph
Humidity: 32%   Direction: 160°SSE
Pressure: 30"   Gusts: NA
Location:  46.2592°N, 98.7407°W
Report Text: KJMS 202056Z AUTO 16005KT 10SM CLR 21/03 A3000 RMK AO2 SLP163 T02060033 56016
Loading
Personal Weather Stations






























Interactive Weather Map
Tropical Storm Tracking
New forecast layout! Learn more

10-Day Weather Forecast

Advertisements
Track Severe Weather on mobile